Cartagena de Indias, Colombia

7:04 PM -05 en Mayo 25, 2017 (GMT -0500)
Rafael Nunez | | Change Station

Alt 3 ft 10.45 °N, 75.52 °W | Updated 4 minutes ago

Parcialmente nublado
Parcialmente nublado
86 ° F
Sensación térmica 95 ° F
N
6
Viento Variable Viento desde NNE

Hoy
Alta -- | Baja -- ° F
--% Posibilidad de precipitaciones
Ayer
Alta -- | Baja -- ° F
Precip. -- pul
Presión 29.75 pul
Visibilidad 6.2 Millas
Nubes Nubes dispersas 1500 ft
Baja 1800 ft
Índice de calor 95 ° F
Punto de rocío 75 ° F
Humedad 70%
Precipitaciones 0.00 pul
Espesor de la nieve No disponible.
5:37 AM 6:15 PM
Luna nueva, 0% visible
METAR SKCG 260000Z 03005KT 310V060 9999 TS SCT015 FEW018CB 30/24 A2975 RMK CB/E/SE
Presión 29.75 pul
Visibilidad 6.2 Millas
Nubes Nubes dispersas 1500 ft
Baja 1800 ft
Índice de calor 95 ° F
Punto de rocío 75 ° F
Humedad 70%
Precipitaciones 0.00 pul
Espesor de la nieve No disponible.
5:37 AM 6:15 PM
Luna nueva, 0% visible
METAR SKCG 260000Z 03005KT 310V060 9999 TS SCT015 FEW018CB 30/24 A2975 RMK CB/E/SE

Get Severe Weather Alerts

Thanks for signing up!

Be on the lookout for a verification email in your inbox.

You'll start receiving the daily forecast at 6 AM.

×

10-Day Weather Forecast

No radar image for this location.
×

Almanac

Astronomía

May. 25, 2017 Salida Puesta
Hora real
Crepúsculo civil
Crepúsculo náutico
Crepúsculo astronómico
Luna
Horas de luz
Horas de luz
Tomorrow will be .
, % of the Moon is Illuminated

Extremos de hoy

Máximos del país Bajas del país

Community

WunderPhotos

Category 6

Welcome to Category 6. This is the collective home for Weather Underground's featured writeups by Dr. Jeff Masters (right), Bob Henson (left), Chris Burt, and other regular contributors.

Nearby

Calidad del aire

  Calidad del aire Índice AQ Contaminante
Not available.

Grosos de nieve

Estación Profundido Altura

Actividad de terremotos

Ciudad Distance Mag. Tiempo y dato
Magnitud mínima muestra es 2,5.

Temperaturas de aguas costeras

Lugar Temperatura

Stations

Estaciones meteorológicas cercanas

Ubicación de la estación Temp. Vientos helados Punto de rocío Humedad Viento Precip. Alt Actualizado Tipo